QTR39N OTHH-KDFW
Flight info
| Callsign | QTR39N |
|---|---|
| Flight time | N/A |
| Altitude | 38000 |
| Route | TULUB B457 NARMI N697 HIL T540 ENABI L550 NOVPA J981 DATOK L550 GENIV L324 LAKTO DCT OTHON UN128 YOYYO UN618 IMR UN128 LMO DCT EVIVI L863 OKANA DCT NIVIS DCT BABIT DCT SOGMO DCT SASAL DCT DEXIT DCT RUDNO DCT SULUS L604 MAPOX DCT RAVLO Y70 OTBED L60 PENIL M144 BAGSO DCT NEBIN/M083F300 DCT 5330N02000W 5230N03000W 5130N04000W 5030N05000W DCT BUDAR/N0487F300 N442E TOPPS Q913 CABCI Q29 DORET Q82 WWSHR Q29 CREEP Q139 IIU J112 PXV J131 LIT FINGR1 |
| Aircraft | B77L/H-SDE1E2E3FGHIJ2J3J4J5M1RWXY/LB1D1 |
Departure
| Time | N/A |
|---|---|
| Airport | Hamad International Airport (OTHH) |
Arrival
| Time | 2026-04-30 14:40 |
|---|---|
| Airport | Dallas Fort Worth International Airport (KDFW) |
| Time | Latitude | Longitude | Altitude | Speed | Heading |
|---|---|---|---|---|---|
| 2026-04-30 12:30 | 39.81057 | -84.38854 | 35455 ft | 454 kts | 216° |
| 2026-04-30 12:30 | 39.78289 | -84.40812 | 35879 ft | 452 kts | 216° |
| 2026-04-30 12:31 | 39.75528 | -84.42773 | 36276 ft | 452 kts | 216° |
| 2026-04-30 12:31 | 39.72772 | -84.44737 | 36594 ft | 452 kts | 216° |
| 2026-04-30 12:31 | 39.70015 | -84.46707 | 36972 ft | 451 kts | 216° |
| 2026-04-30 12:31 | 39.67275 | -84.48661 | 37477 ft | 447 kts | 217° |
| 2026-04-30 12:32 | 39.64564 | -84.50590 | 37961 ft | 443 kts | 217° |
| 2026-04-30 12:32 | 39.61859 | -84.52519 | 38077 ft | 446 kts | 217° |
| 2026-04-30 12:32 | 39.56384 | -84.56421 | 38070 ft | 449 kts | 217° |
| 2026-04-30 12:33 | 39.50934 | -84.60287 | 38058 ft | 444 kts | 217° |
| 2026-04-30 12:33 | 39.45516 | -84.64126 | 38074 ft | 444 kts | 217° |
| 2026-04-30 12:34 | 39.40107 | -84.67954 | 38075 ft | 443 kts | 217° |
| 2026-04-30 12:34 | 39.34701 | -84.71773 | 38075 ft | 443 kts | 217° |
| 2026-04-30 12:35 | 39.29287 | -84.75590 | 38091 ft | 444 kts | 217° |
| 2026-04-30 12:35 | 39.23859 | -84.79412 | 38094 ft | 445 kts | 217° |
| 2026-04-30 12:36 | 39.18423 | -84.83232 | 38093 ft | 445 kts | 217° |
| 2026-04-30 12:36 | 39.12974 | -84.87052 | 38089 ft | 446 kts | 217° |
| 2026-04-30 12:37 | 39.07516 | -84.90874 | 38090 ft | 447 kts | 217° |
| 2026-04-30 12:37 | 39.02087 | -84.94669 | 38087 ft | 447 kts | 217° |
| 2026-04-30 12:38 | 38.96622 | -84.98476 | 38077 ft | 447 kts | 217° |
| 2026-04-30 12:38 | 38.91155 | -85.02274 | 38079 ft | 447 kts | 217° |
| 2026-04-30 12:39 | 38.85688 | -85.06069 | 38083 ft | 447 kts | 217° |
| 2026-04-30 12:39 | 38.80227 | -85.09857 | 38093 ft | 446 kts | 217° |
| 2026-04-30 12:40 | 38.74768 | -85.13635 | 38100 ft | 445 kts | 217° |
| 2026-04-30 12:40 | 38.69316 | -85.17400 | 38097 ft | 445 kts | 217° |
| 2026-04-30 12:41 | 38.63864 | -85.21153 | 38107 ft | 445 kts | 217° |
| 2026-04-30 12:41 | 38.58414 | -85.24892 | 38107 ft | 444 kts | 217° |
| 2026-04-30 12:42 | 38.52971 | -85.28629 | 38110 ft | 444 kts | 218° |
| 2026-04-30 12:42 | 38.47520 | -85.32365 | 38101 ft | 445 kts | 218° |
| 2026-04-30 12:43 | 38.42069 | -85.36095 | 38103 ft | 444 kts | 218° |
| 2026-04-30 12:43 | 38.36614 | -85.39820 | 38106 ft | 445 kts | 218° |
| 2026-04-30 12:44 | 38.31162 | -85.43533 | 38096 ft | 444 kts | 218° |
| 2026-04-30 12:44 | 38.25713 | -85.47243 | 38105 ft | 444 kts | 218° |
| 2026-04-30 12:45 | 38.20262 | -85.50949 | 38104 ft | 444 kts | 218° |
| 2026-04-30 12:45 | 38.14848 | -85.54697 | 38088 ft | 435 kts | 224° |
| 2026-04-30 12:46 | 38.12679 | -85.57209 | 38103 ft | 413 kts | 240° |
| 2026-04-30 12:46 | 38.11164 | -85.60237 | 38113 ft | 404 kts | 249° |
| 2026-04-30 12:46 | 38.09499 | -85.66976 | 38103 ft | 399 kts | 268° |
| 2026-04-30 12:47 | 38.09048 | -85.74008 | 38115 ft | 405 kts | 268° |
| 2026-04-30 12:47 | 38.08586 | -85.81146 | 38108 ft | 407 kts | 268° |
| 2026-04-30 12:48 | 38.08087 | -85.88293 | 38103 ft | 406 kts | 268° |
| 2026-04-30 12:48 | 38.07567 | -85.95412 | 38096 ft | 404 kts | 268° |
| 2026-04-30 12:49 | 38.07043 | -86.02471 | 38096 ft | 401 kts | 268° |
| 2026-04-30 12:49 | 38.06518 | -86.09488 | 38102 ft | 399 kts | 268° |
| 2026-04-30 12:50 | 38.05992 | -86.16482 | 38100 ft | 397 kts | 267° |
| 2026-04-30 12:50 | 38.05462 | -86.23447 | 38105 ft | 396 kts | 267° |
| 2026-04-30 12:51 | 38.04928 | -86.30402 | 38107 ft | 396 kts | 267° |
| 2026-04-30 12:51 | 38.04391 | -86.37351 | 38113 ft | 396 kts | 267° |
| 2026-04-30 12:52 | 38.03850 | -86.44315 | 38113 ft | 397 kts | 267° |
| 2026-04-30 12:52 | 38.03304 | -86.51295 | 38119 ft | 398 kts | 267° |
| 2026-04-30 12:53 | 38.02753 | -86.58277 | 38132 ft | 398 kts | 267° |
| 2026-04-30 12:53 | 38.02201 | -86.65228 | 38131 ft | 399 kts | 267° |
| 2026-04-30 12:54 | 38.01637 | -86.72238 | 38130 ft | 400 kts | 267° |
| 2026-04-30 12:54 | 38.01067 | -86.79258 | 38135 ft | 400 kts | 267° |
| 2026-04-30 12:55 | 38.00496 | -86.86283 | 38145 ft | 400 kts | 267° |
| 2026-04-30 12:55 | 37.99922 | -86.93305 | 38139 ft | 400 kts | 267° |
| 2026-04-30 12:56 | 37.99435 | -86.99169 | 38147 ft | 398 kts | 268° |
| 2026-04-30 12:56 | 37.98865 | -87.06001 | 38128 ft | 387 kts | 268° |
| 2026-04-30 12:57 | 37.98298 | -87.12778 | 38128 ft | 387 kts | 268° |
| 2026-04-30 12:57 | 37.97729 | -87.19555 | 38131 ft | 386 kts | 268° |
| 2026-04-30 12:58 | 37.97155 | -87.26319 | 38126 ft | 386 kts | 268° |
| 2026-04-30 12:58 | 37.96579 | -87.33078 | 38129 ft | 386 kts | 268° |
| 2026-04-30 12:59 | 37.95995 | -87.39845 | 38149 ft | 387 kts | 268° |
| 2026-04-30 12:59 | 37.95407 | -87.46630 | 38146 ft | 388 kts | 268° |
| 2026-04-30 13:00 | 37.94815 | -87.53436 | 38143 ft | 389 kts | 268° |
| 2026-04-30 13:00 | 37.94216 | -87.60256 | 38151 ft | 390 kts | 268° |
| 2026-04-30 13:01 | 37.93612 | -87.67092 | 38159 ft | 391 kts | 268° |
| 2026-04-30 13:01 | 37.92428 | -87.73832 | 38167 ft | 400 kts | 255° |
| 2026-04-30 13:02 | 37.89948 | -87.80194 | 38150 ft | 407 kts | 246° |
| 2026-04-30 13:02 | 37.86323 | -87.85816 | 38147 ft | 415 kts | 238° |
| 2026-04-30 13:03 | 37.82485 | -87.91263 | 38155 ft | 414 kts | 238° |
| 2026-04-30 13:03 | 37.78662 | -87.96719 | 38160 ft | 415 kts | 238° |
| 2026-04-30 13:04 | 37.74855 | -88.02200 | 38162 ft | 415 kts | 239° |
| 2026-04-30 13:04 | 37.71053 | -88.07686 | 38165 ft | 415 kts | 239° |
| 2026-04-30 13:05 | 37.67253 | -88.13165 | 38167 ft | 414 kts | 239° |
| 2026-04-30 13:06 | 37.61555 | -88.21356 | 38164 ft | 414 kts | 239° |
| 2026-04-30 13:06 | 37.57759 | -88.26802 | 38163 ft | 413 kts | 239° |
| 2026-04-30 13:07 | 37.53963 | -88.32240 | 38159 ft | 413 kts | 239° |
| 2026-04-30 13:07 | 37.50169 | -88.37665 | 38151 ft | 412 kts | 239° |
| 2026-04-30 13:08 | 37.46385 | -88.43067 | 38159 ft | 411 kts | 239° |
| 2026-04-30 13:08 | 37.42607 | -88.48455 | 38161 ft | 410 kts | 239° |
| 2026-04-30 13:09 | 37.38836 | -88.53820 | 38157 ft | 408 kts | 239° |
| 2026-04-30 13:09 | 37.35078 | -88.59158 | 38160 ft | 407 kts | 240° |
| 2026-04-30 13:10 | 37.31335 | -88.64465 | 38156 ft | 405 kts | 240° |
| 2026-04-30 13:10 | 37.27598 | -88.69761 | 38154 ft | 405 kts | 240° |
| 2026-04-30 13:11 | 37.23862 | -88.75046 | 38158 ft | 405 kts | 240° |
| 2026-04-30 13:11 | 37.20125 | -88.80318 | 38157 ft | 404 kts | 240° |
| 2026-04-30 13:12 | 37.16393 | -88.85579 | 38158 ft | 404 kts | 240° |
| 2026-04-30 13:12 | 37.12658 | -88.90834 | 38156 ft | 403 kts | 240° |
| 2026-04-30 13:13 | 37.07061 | -88.98694 | 38158 ft | 403 kts | 240° |
| 2026-04-30 13:14 | 37.01465 | -89.06532 | 38155 ft | 402 kts | 240° |
| 2026-04-30 13:14 | 36.95876 | -89.14342 | 38156 ft | 401 kts | 240° |
| 2026-04-30 13:15 | 36.90299 | -89.22118 | 38154 ft | 400 kts | 241° |
| 2026-04-30 13:16 | 36.86609 | -89.27253 | 38157 ft | 400 kts | 241° |
| 2026-04-30 13:16 | 36.82894 | -89.32413 | 38159 ft | 399 kts | 241° |
| 2026-04-30 13:17 | 36.77329 | -89.40129 | 38154 ft | 398 kts | 241° |
| 2026-04-30 13:18 | 36.71771 | -89.47819 | 38147 ft | 397 kts | 241° |
| 2026-04-30 13:18 | 36.66223 | -89.55483 | 38156 ft | 396 kts | 241° |
| 2026-04-30 13:19 | 36.62528 | -89.60569 | 38159 ft | 396 kts | 242° |
| 2026-04-30 13:19 | 36.58835 | -89.65646 | 38152 ft | 395 kts | 242° |
| 2026-04-30 13:20 | 36.55141 | -89.70709 | 38156 ft | 395 kts | 242° |
| 2026-04-30 13:20 | 36.51452 | -89.75760 | 38147 ft | 394 kts | 242° |
| 2026-04-30 13:21 | 36.47794 | -89.80765 | 38161 ft | 394 kts | 242° |
| 2026-04-30 13:22 | 36.42274 | -89.88310 | 38158 ft | 393 kts | 242° |
| 2026-04-30 13:22 | 36.36753 | -89.95833 | 38160 ft | 393 kts | 242° |
| 2026-04-30 13:23 | 36.31225 | -90.03348 | 38148 ft | 393 kts | 242° |
| 2026-04-30 13:24 | 36.23926 | -90.13382 | 38149 ft | 389 kts | 244° |
| 2026-04-30 13:25 | 36.16951 | -90.23586 | 38148 ft | 388 kts | 244° |
| 2026-04-30 13:26 | 36.08192 | -90.36286 | 38149 ft | 388 kts | 244° |
| 2026-04-30 13:28 | 35.99418 | -90.48932 | 38151 ft | 389 kts | 244° |
| 2026-04-30 13:28 | 35.94125 | -90.56543 | 38153 ft | 390 kts | 244° |
| 2026-04-30 13:29 | 35.87044 | -90.66693 | 38152 ft | 391 kts | 243° |
| 2026-04-30 13:31 | 35.78129 | -90.79428 | 38148 ft | 393 kts | 243° |
| 2026-04-30 13:32 | 35.69172 | -90.92180 | 38149 ft | 394 kts | 243° |
| 2026-04-30 13:33 | 35.61985 | -91.02365 | 38149 ft | 394 kts | 243° |
| 2026-04-30 13:34 | 35.56594 | -91.09996 | 38153 ft | 394 kts | 243° |
| 2026-04-30 13:35 | 35.49395 | -91.20153 | 38150 ft | 394 kts | 243° |
| 2026-04-30 13:36 | 35.42204 | -91.30270 | 38151 ft | 393 kts | 242° |
| 2026-04-30 13:36 | 35.36824 | -91.37819 | 38132 ft | 394 kts | 243° |
| 2026-04-30 13:37 | 35.31411 | -91.45396 | 38149 ft | 394 kts | 242° |
| 2026-04-30 13:38 | 35.25988 | -91.52973 | 38146 ft | 395 kts | 242° |
| 2026-04-30 13:39 | 35.18746 | -91.63064 | 38140 ft | 395 kts | 242° |
| 2026-04-30 13:40 | 35.13299 | -91.70639 | 38148 ft | 396 kts | 242° |
| 2026-04-30 13:40 | 35.09657 | -91.75693 | 38127 ft | 397 kts | 242° |
| 2026-04-30 13:41 | 35.06007 | -91.80748 | 38128 ft | 397 kts | 242° |
| 2026-04-30 13:41 | 35.02348 | -91.85810 | 38118 ft | 398 kts | 242° |
| 2026-04-30 13:42 | 34.98683 | -91.90875 | 38113 ft | 399 kts | 242° |
| 2026-04-30 13:42 | 34.93158 | -91.98493 | 38111 ft | 401 kts | 242° |
| 2026-04-30 13:43 | 34.89458 | -92.03585 | 38116 ft | 402 kts | 241° |
| 2026-04-30 13:43 | 34.85752 | -92.08678 | 38108 ft | 402 kts | 241° |
| 2026-04-30 13:44 | 34.82673 | -92.12905 | 38113 ft | 402 kts | 241° |
| 2026-04-30 13:44 | 34.80945 | -92.15528 | 38104 ft | 390 kts | 249° |
| 2026-04-30 13:44 | 34.79772 | -92.18399 | 38114 ft | 373 kts | 257° |
| 2026-04-30 13:45 | 34.76769 | -92.27206 | 38119 ft | 379 kts | 256° |
| 2026-04-30 13:46 | 34.74693 | -92.33116 | 38121 ft | 382 kts | 256° |
| 2026-04-30 13:46 | 34.72593 | -92.39065 | 38119 ft | 384 kts | 256° |
| 2026-04-30 13:47 | 34.70475 | -92.45039 | 38121 ft | 386 kts | 256° |
| 2026-04-30 13:47 | 34.68348 | -92.51030 | 38109 ft | 387 kts | 256° |
| 2026-04-30 13:48 | 34.66216 | -92.57033 | 38110 ft | 387 kts | 256° |
| 2026-04-30 13:48 | 34.64081 | -92.63029 | 38113 ft | 387 kts | 256° |
| 2026-04-30 13:49 | 34.61947 | -92.69011 | 38111 ft | 386 kts | 256° |
| 2026-04-30 13:49 | 34.59814 | -92.74980 | 38108 ft | 385 kts | 256° |
| 2026-04-30 13:50 | 34.57685 | -92.80926 | 38111 ft | 384 kts | 255° |
| 2026-04-30 13:50 | 34.54511 | -92.89772 | 38097 ft | 382 kts | 255° |
| 2026-04-30 13:51 | 34.52388 | -92.95678 | 38104 ft | 382 kts | 255° |
| 2026-04-30 13:51 | 34.50263 | -93.01577 | 38100 ft | 381 kts | 255° |
| 2026-04-30 13:52 | 34.48135 | -93.07471 | 38104 ft | 382 kts | 255° |
| 2026-04-30 13:52 | 34.46004 | -93.13366 | 38098 ft | 382 kts | 255° |
| 2026-04-30 13:53 | 34.43869 | -93.19261 | 38104 ft | 382 kts | 255° |
| 2026-04-30 13:53 | 34.41730 | -93.25155 | 38102 ft | 382 kts | 255° |
| 2026-04-30 13:54 | 34.39587 | -93.31051 | 38096 ft | 383 kts | 255° |
| 2026-04-30 13:54 | 34.37435 | -93.36960 | 38094 ft | 384 kts | 255° |
| 2026-04-30 13:55 | 34.35278 | -93.42871 | 38088 ft | 384 kts | 255° |
| 2026-04-30 13:55 | 34.33118 | -93.48780 | 38098 ft | 384 kts | 255° |
| 2026-04-30 13:56 | 34.31048 | -93.54730 | 38078 ft | 381 kts | 257° |
| 2026-04-30 13:56 | 34.29379 | -93.60795 | 38083 ft | 380 kts | 259° |
| 2026-04-30 13:57 | 34.27765 | -93.66883 | 38088 ft | 380 kts | 259° |
| 2026-04-30 13:57 | 34.26127 | -93.72928 | 38084 ft | 381 kts | 258° |
| 2026-04-30 13:58 | 34.23612 | -93.82056 | 38085 ft | 382 kts | 258° |
| 2026-04-30 13:59 | 34.21922 | -93.88146 | 38086 ft | 383 kts | 258° |
| 2026-04-30 13:59 | 34.20225 | -93.94240 | 38093 ft | 383 kts | 258° |
| 2026-04-30 14:00 | 34.18525 | -94.00333 | 38092 ft | 383 kts | 258° |
| 2026-04-30 14:00 | 34.15965 | -94.09486 | 38081 ft | 384 kts | 258° |
| 2026-04-30 14:01 | 34.14254 | -94.15588 | 38082 ft | 383 kts | 258° |
| 2026-04-30 14:01 | 34.12543 | -94.21679 | 38081 ft | 383 kts | 258° |
| 2026-04-30 14:02 | 34.10829 | -94.27762 | 38074 ft | 383 kts | 258° |
| 2026-04-30 14:02 | 34.09114 | -94.33842 | 38075 ft | 383 kts | 258° |
| 2026-04-30 14:03 | 34.07395 | -94.39917 | 38072 ft | 383 kts | 258° |
| 2026-04-30 14:03 | 34.05675 | -94.45987 | 38076 ft | 382 kts | 258° |
| 2026-04-30 14:04 | 34.03956 | -94.52043 | 38075 ft | 381 kts | 258° |
| 2026-04-30 14:04 | 34.02234 | -94.58086 | 38078 ft | 381 kts | 258° |
| 2026-04-30 14:05 | 34.00510 | -94.64125 | 38077 ft | 381 kts | 258° |
| 2026-04-30 14:05 | 33.98786 | -94.70161 | 38077 ft | 381 kts | 257° |
| 2026-04-30 14:06 | 33.96190 | -94.79224 | 38088 ft | 382 kts | 257° |
| 2026-04-30 14:07 | 33.93595 | -94.88251 | 38095 ft | 382 kts | 257° |
| 2026-04-30 14:08 | 33.90977 | -94.97324 | 38092 ft | 382 kts | 257° |
| 2026-04-30 14:08 | 33.88357 | -95.06391 | 38091 ft | 382 kts | 257° |
| 2026-04-30 14:09 | 33.86725 | -95.12011 | 38093 ft | 382 kts | 257° |
| 2026-04-30 14:10 | 33.84096 | -95.21042 | 38080 ft | 381 kts | 257° |
| 2026-04-30 14:10 | 33.82342 | -95.27055 | 38082 ft | 381 kts | 257° |
| 2026-04-30 14:11 | 33.80592 | -95.33054 | 38091 ft | 381 kts | 257° |
| 2026-04-30 14:11 | 33.78835 | -95.39050 | 38080 ft | 380 kts | 257° |
| 2026-04-30 14:12 | 33.77080 | -95.45034 | 38090 ft | 379 kts | 257° |
| 2026-04-30 14:12 | 33.75324 | -95.51007 | 38080 ft | 379 kts | 257° |
| 2026-04-30 14:13 | 33.73567 | -95.56968 | 38088 ft | 378 kts | 257° |
| 2026-04-30 14:13 | 33.71604 | -95.62845 | 38083 ft | 386 kts | 249° |
| 2026-04-30 14:14 | 33.68283 | -95.68066 | 38077 ft | 395 kts | 242° |
| 2026-04-30 14:14 | 33.64831 | -95.73199 | 38067 ft | 395 kts | 242° |
| 2026-04-30 14:15 | 33.61414 | -95.78346 | 38064 ft | 394 kts | 242° |
| 2026-04-30 14:15 | 33.59731 | -95.80891 | 37779 ft | 398 kts | 242° |
| 2026-04-30 14:15 | 33.57993 | -95.83527 | 37143 ft | 402 kts | 242° |
| 2026-04-30 14:15 | 33.56261 | -95.86132 | 36499 ft | 397 kts | 242° |
| 2026-04-30 14:16 | 33.54539 | -95.88721 | 35494 ft | 399 kts | 242° |
| 2026-04-30 14:16 | 33.52832 | -95.91358 | 34442 ft | 401 kts | 243° |
| 2026-04-30 14:16 | 33.51167 | -95.94060 | 33379 ft | 404 kts | 244° |
| 2026-04-30 14:16 | 33.49507 | -95.96795 | 32315 ft | 408 kts | 243° |
| 2026-04-30 14:17 | 33.47830 | -95.99552 | 31262 ft | 410 kts | 242° |
| 2026-04-30 14:17 | 33.46149 | -96.02298 | 30400 ft | 408 kts | 242° |
| 2026-04-30 14:17 | 33.44472 | -96.05020 | 29591 ft | 404 kts | 241° |
| 2026-04-30 14:17 | 33.42811 | -96.07707 | 28815 ft | 400 kts | 240° |
| 2026-04-30 14:18 | 33.41166 | -96.10367 | 28057 ft | 395 kts | 240° |
| 2026-04-30 14:18 | 33.39530 | -96.12999 | 27330 ft | 392 kts | 239° |
| 2026-04-30 14:18 | 33.36219 | -96.18126 | 25917 ft | 386 kts | 238° |
| 2026-04-30 14:19 | 33.32945 | -96.23159 | 24542 ft | 381 kts | 238° |
| 2026-04-30 14:19 | 33.31325 | -96.25657 | 23872 ft | 379 kts | 238° |
| 2026-04-30 14:19 | 33.29719 | -96.28140 | 23210 ft | 377 kts | 238° |
| 2026-04-30 14:20 | 33.28119 | -96.30611 | 22558 ft | 375 kts | 238° |
| 2026-04-30 14:20 | 33.26525 | -96.33066 | 21915 ft | 372 kts | 237° |
| 2026-04-30 14:20 | 33.23608 | -96.38077 | 20699 ft | 364 kts | 242° |
| 2026-04-30 14:21 | 33.22280 | -96.40634 | 20103 ft | 360 kts | 243° |
| 2026-04-30 14:21 | 33.20982 | -96.43174 | 19557 ft | 357 kts | 242° |
| 2026-04-30 14:21 | 33.18362 | -96.48142 | 18451 ft | 350 kts | 241° |
| 2026-04-30 14:22 | 33.17046 | -96.50575 | 17906 ft | 348 kts | 241° |
| 2026-04-30 14:22 | 33.14338 | -96.55405 | 16821 ft | 357 kts | 239° |
| 2026-04-30 14:22 | 33.12918 | -96.57877 | 16246 ft | 364 kts | 239° |
| 2026-04-30 14:23 | 33.10010 | -96.62809 | 15088 ft | 360 kts | 238° |
| 2026-04-30 14:23 | 33.07137 | -96.67603 | 13975 ft | 351 kts | 238° |
| 2026-04-30 14:24 | 33.04367 | -96.72317 | 12908 ft | 343 kts | 238° |
| 2026-04-30 14:24 | 33.03002 | -96.74630 | 12378 ft | 339 kts | 238° |
| 2026-04-30 14:25 | 33.00404 | -96.79023 | 11794 ft | 302 kts | 239° |
| 2026-04-30 14:25 | 32.97873 | -96.82572 | 10873 ft | 279 kts | 213° |
| 2026-04-30 14:26 | 32.94048 | -96.83239 | 9434 ft | 283 kts | 180° |
| 2026-04-30 14:26 | 32.92082 | -96.83131 | 8777 ft | 286 kts | 178° |
| 2026-04-30 14:26 | 32.88171 | -96.82981 | 8112 ft | 277 kts | 178° |
| 2026-04-30 14:27 | 32.86252 | -96.82926 | 7739 ft | 275 kts | 178° |
| 2026-04-30 14:27 | 32.84341 | -96.82877 | 7358 ft | 273 kts | 178° |
| 2026-04-30 14:27 | 32.82445 | -96.82836 | 6971 ft | 272 kts | 178° |
| 2026-04-30 14:28 | 32.78698 | -96.82781 | 6222 ft | 267 kts | 178° |
| 2026-04-30 14:28 | 32.76842 | -96.82769 | 5842 ft | 265 kts | 178° |
| 2026-04-30 14:28 | 32.75001 | -96.82760 | 5437 ft | 266 kts | 178° |
| 2026-04-30 14:28 | 32.73162 | -96.82767 | 5093 ft | 264 kts | 178° |
| 2026-04-30 14:29 | 32.69522 | -96.82826 | 4267 ft | 260 kts | 178° |
| 2026-04-30 14:29 | 32.66493 | -96.82912 | 4028 ft | 262 kts | 178° |
| 2026-04-30 14:30 | 32.60906 | -96.85096 | 4019 ft | 258 kts | 214° |
| 2026-04-30 14:31 | 32.57992 | -96.87605 | 4020 ft | 259 kts | 213° |
| 2026-04-30 14:31 | 32.55608 | -96.90573 | 4033 ft | 253 kts | 258° |
| 2026-04-30 14:31 | 32.55719 | -96.92571 | 4025 ft | 246 kts | 295° |
| 2026-04-30 14:32 | 32.56927 | -96.96386 | 4039 ft | 253 kts | 287° |
| 2026-04-30 14:32 | 32.57429 | -96.98386 | 4046 ft | 251 kts | 290° |
| 2026-04-30 14:32 | 32.57950 | -97.00353 | 4035 ft | 248 kts | 289° |
| 2026-04-30 14:33 | 32.58460 | -97.02294 | 4026 ft | 246 kts | 289° |
| 2026-04-30 14:33 | 32.60389 | -97.05346 | 3992 ft | 237 kts | 342° |
| 2026-04-30 14:33 | 32.61981 | -97.05605 | 3888 ft | 229 kts | 6° |
| 2026-04-30 14:34 | 32.63582 | -97.05587 | 3797 ft | 230 kts | 3° |
| 2026-04-30 14:34 | 32.65177 | -97.05603 | 3675 ft | 226 kts | 4° |
| 2026-04-30 14:34 | 32.66209 | -97.05604 | 3581 ft | 221 kts | 5° |
| 2026-04-30 14:34 | 32.67699 | -97.05596 | 3486 ft | 207 kts | 5° |
| 2026-04-30 14:35 | 32.70451 | -97.05572 | 3362 ft | 196 kts | 5° |
| 2026-04-30 14:35 | 32.71800 | -97.05567 | 3274 ft | 187 kts | 5° |
| 2026-04-30 14:35 | 32.73078 | -97.05562 | 3164 ft | 182 kts | 6° |
| 2026-04-30 14:36 | 32.74340 | -97.05555 | 3112 ft | 181 kts | 6° |
| 2026-04-30 14:36 | 32.75600 | -97.05548 | 2988 ft | 185 kts | 6° |
| 2026-04-30 14:36 | 32.76877 | -97.05542 | 2732 ft | 179 kts | 6° |
| 2026-04-30 14:36 | 32.78076 | -97.05537 | 2501 ft | 164 kts | 6° |
| 2026-04-30 14:37 | 32.79157 | -97.05532 | 2294 ft | 148 kts | 5° |
| 2026-04-30 14:37 | 32.80146 | -97.05524 | 2135 ft | 141 kts | 6° |
| 2026-04-30 14:37 | 32.81134 | -97.05518 | 1944 ft | 142 kts | 5° |
| 2026-04-30 14:37 | 32.82116 | -97.05513 | 1735 ft | 140 kts | 4° |
| 2026-04-30 14:38 | 32.83090 | -97.05508 | 1559 ft | 140 kts | 4° |
| 2026-04-30 14:38 | 32.84067 | -97.05503 | 1376 ft | 141 kts | 4° |
| 2026-04-30 14:38 | 32.85049 | -97.05497 | 1185 ft | 141 kts | 4° |
| 2026-04-30 14:38 | 32.86024 | -97.05494 | 1000 ft | 140 kts | 3° |
| 2026-04-30 14:39 | 32.86992 | -97.05489 | 805 ft | 139 kts | 3° |
| 2026-04-30 14:39 | 32.87961 | -97.05483 | 643 ft | 140 kts | 2° |
| 2026-04-30 14:39 | 32.88900 | -97.05475 | 600 ft | 120 kts | 0° |
| 2026-04-30 14:40 | 32.89886 | -97.05429 | 627 ft | 33 kts | 22° |
| 2026-04-30 14:40 | 32.90055 | -97.05324 | 618 ft | 16 kts | 29° |
| 2026-04-30 14:40 | 32.90115 | -97.05251 | 619 ft | 14 kts | 77° |
| 2026-04-30 14:40 | 32.90116 | -97.05217 | 605 ft | 0 kts | 91° |
| 2026-04-30 14:41 | 32.90115 | -97.05185 | 615 ft | 10 kts | 91° |
| 2026-04-30 14:42 | 32.90116 | -97.05058 | 603 ft | 18 kts | 89° |
| 2026-04-30 14:42 | 32.90116 | -97.04942 | 603 ft | 14 kts | 90° |
| 2026-04-30 14:42 | 32.90116 | -97.04849 | 603 ft | 9 kts | 90° |
| 2026-04-30 14:42 | 32.90115 | -97.04792 | 602 ft | 7 kts | 95° |
| 2026-04-30 14:43 | 32.90087 | -97.04764 | 602 ft | 6 kts | 167° |
| 2026-04-30 14:43 | 32.90033 | -97.04765 | 603 ft | 11 kts | 181° |
| 2026-04-30 14:43 | 32.89935 | -97.04765 | 603 ft | 14 kts | 180° |
| 2026-04-30 14:43 | 32.89860 | -97.04765 | 602 ft | 11 kts | 179° |
| 2026-04-30 14:44 | 32.89786 | -97.04750 | 601 ft | 11 kts | 143° |
| 2026-04-30 14:44 | 32.89770 | -97.04684 | 602 ft | 10 kts | 91° |
| 2026-04-30 14:44 | 32.89770 | -97.04614 | 602 ft | 7 kts | 90° |
| 2026-04-30 14:44 | 32.89769 | -97.04568 | 602 ft | 2 kts | 91° |
| 2026-04-30 14:45 | 32.89769 | -97.04567 | 602 ft | 0 kts | 91° |